West Lowville, New York
Current Conditions -  °F | °C
As of 10:08 PM on Friday 21 Nov 2014 (Local Time) from KGTB Reporting Station
Overcast Overcast  
Wind Chill:   Ceiling: 2900
Heat Index: 18°   Visibility: 10mi
Dew Point: 12°   Wind: 6mph
Humidity: 79%   Direction: 150°SSE
Pressure: 30.35"   Gusts: NA
Location:  43.7565°N, 75.5938°W
Report Text: KGTB 220308Z AUTO 15005KT 10SM SCT021 BKN029 OVC036 M08/M11 A3035 RMK AO2
Loading
Personal Weather Stations






























Interactive Weather Map New forecast layout! Learn more

10-Day Weather Forecast

Advertisements
Track Severe Weather on mobile